Archiv-/Tagesdaten

--Timestamp---	Temp	Chill	HIndex	Humid	Dewpt	 Wind 	HiWind	WindDir	Rain 	Barom	Solar	 ET  	 UV 
--------------	----	-----	------	-----	-----	------	------	-------	-----	-----	-----	-----	----
20090903 00:00	15.8	15.8	15.8	88	13.8	6	16	180	0.0	1011.3	0	0.025	0.0
20090903 00:05	15.8	15.8	15.8	87	13.7	6	14	180	0.0	1011.0	0	0.000	0.0
20090903 00:10	15.8	15.8	15.8	87	13.7	5	8	202	0.0	1010.9	0	0.000	0.0
20090903 00:15	15.9	15.9	15.9	87	13.7	5	14	180	0.0	1011.0	0	0.000	0.0
20090903 00:20	15.9	15.9	15.9	87	13.7	3	11	225	0.0	1010.8	0	0.000	0.0
20090903 00:25	15.9	15.9	15.9	88	13.9	5	11	135	0.2	1010.5	0	0.000	0.0
20090903 00:30	15.9	15.9	15.9	88	13.9	5	11	158	0.0	1010.2	0	0.000	0.0
20090903 00:35	15.8	15.8	15.8	88	13.8	3	6	135	0.0	1009.9	0	0.000	0.0
20090903 00:40	15.8	15.8	15.8	88	13.8	3	8	135	0.0	1009.9	0	0.000	0.0
20090903 00:45	15.7	15.7	15.7	88	13.7	5	11	180	0.0	1009.9	0	0.000	0.0
20090903 00:50	15.7	15.7	15.7	88	13.7	5	14	158	0.0	1009.7	0	0.000	0.0
20090903 00:55	15.6	15.6	15.6	89	13.8	5	11	180	0.0	1009.9	0	0.000	0.0
20090903 01:00	15.6	15.6	15.6	89	13.7	3	8	202	0.0	1010.1	0	0.025	0.0
20090903 01:05	15.6	15.6	15.6	89	13.7	3	10	180	0.0	1009.9	0	0.000	0.0
20090903 01:10	15.5	15.5	15.5	89	13.7	2	6	180	0.0	1009.7	0	0.000	0.0
20090903 01:15	15.5	15.5	15.5	89	13.7	0	5	180	0.0	1009.9	0	0.000	0.0
20090903 01:20	15.5	15.5	15.5	90	13.9	5	8	180	0.0	1010.1	0	0.000	0.0
20090903 01:25	15.4	15.4	15.4	89	13.6	3	8	270	0.0	1010.0	0	0.000	0.0
20090903 01:30	15.4	15.4	15.4	90	13.8	2	5	225	0.0	1009.7	0	0.000	0.0
20090903 01:35	15.4	15.4	15.4	90	13.8	8	18	202	0.0	1009.9	0	0.000	0.0
20090903 01:40	15.4	15.4	15.4	90	13.8	8	21	202	0.0	1009.6	0	0.000	0.0
20090903 01:45	15.5	15.5	15.5	90	13.9	6	14	158	0.0	1008.9	0	0.000	0.0
20090903 01:50	15.5	15.5	15.5	90	13.9	3	10	135	0.2	1009.0	0	0.000	0.0
20090903 01:55	15.5	15.5	15.5	90	13.9	5	13	202	0.0	1009.3	0	0.000	0.0
20090903 02:00	15.5	15.5	15.5	90	13.9	8	16	225	0.0	1009.7	0	0.025	0.0
20090903 02:05	15.5	15.5	15.5	90	13.9	5	11	270	0.0	1009.7	0	0.000	0.0
20090903 02:10	15.4	15.4	15.4	90	13.8	5	10	225	0.0	1008.8	0	0.000	0.0
20090903 02:15	15.5	15.5	15.5	90	13.9	10	19	135	0.0	1007.8	0	0.000	0.0
20090903 02:20	15.4	15.4	15.4	90	13.8	8	18	180	0.0	1008.0	0	0.000	0.0
20090903 02:25	15.4	15.4	15.4	90	13.8	8	18	180	0.0	1008.2	0	0.000	0.0
20090903 02:30	15.4	15.4	15.4	92	14.1	3	6	202	0.0	1008.3	0	0.000	0.0
20090903 02:35	15.3	15.3	15.3	90	13.7	2	6	248	0.0	1008.2	0	0.000	0.0
20090903 02:40	15.3	15.3	15.3	90	13.6	2	5	248	0.0	1008.3	0	0.000	0.0
20090903 02:45	15.2	15.2	15.2	90	13.6	0	5	248	0.0	1008.3	0	0.000	0.0
20090903 02:50	15.2	15.2	15.2	90	13.5	2	6	248	0.0	1008.3	0	0.000	0.0
20090903 02:55	15.1	15.1	15.1	91	13.7	0	3	248	0.0	1008.3	0	0.000	0.0
20090903 03:00	15.1	15.1	15.1	90	13.4	2	5	248	0.0	1008.3	0	0.000	0.0
20090903 03:05	15.0	15.0	15.0	91	13.5	3	8	248	0.2	1008.1	0	0.000	0.0
20090903 03:10	15.0	15.0	15.0	91	13.5	5	11	180	0.0	1008.0	0	0.000	0.0
20090903 03:15	15.0	15.0	15.0	91	13.5	0	5	180	0.0	1007.9	0	0.000	0.0
20090903 03:20	15.0	15.0	15.0	91	13.5	0	3	180	0.0	1007.7	0	0.000	0.0
20090903 03:25	15.0	15.0	15.0	91	13.5	3	10	180	0.0	1007.5	0	0.000	0.0
20090903 03:30	15.0	15.0	15.0	91	13.5	5	8	202	0.0	1007.4	0	0.000	0.0
20090903 03:35	15.0	15.0	15.0	91	13.5	3	8	180	0.0	1007.5	0	0.000	0.0
20090903 03:40	15.0	15.0	15.0	91	13.5	2	6	180	0.0	1007.5	0	0.000	0.0
20090903 03:45	15.0	15.0	15.0	91	13.5	2	8	202	0.0	1007.6	0	0.000	0.0
20090903 03:50	15.0	15.0	15.0	91	13.5	0	2	202	0.0	1007.7	0	0.000	0.0
20090903 03:55	15.0	15.0	15.0	91	13.5	0	2	202	0.0	1007.5	0	0.000	0.0
20090903 04:00	14.9	14.9	14.9	91	13.4	0	0	-100000	0.0	1007.4	0	0.000	0.0
20090903 04:05	14.8	14.8	14.8	91	13.4	0	0	-100000	0.0	1007.5	0	0.000	0.0
20090903 04:10	14.8	14.8	14.8	91	13.4	0	0	-100000	0.0	1007.4	0	0.000	0.0
20090903 04:15	14.8	14.8	14.8	91	13.4	0	0	-100000	0.0	1007.3	0	0.000	0.0
20090903 04:20	14.9	14.9	14.9	92	13.6	0	0	-100000	0.0	1007.2	0	0.000	0.0
20090903 04:25	14.9	14.9	14.9	92	13.7	2	5	202	0.0	1007.3	0	0.000	0.0
20090903 04:30	15.0	15.0	15.0	92	13.7	3	6	202	0.0	1007.3	0	0.000	0.0
20090903 04:35	15.0	15.0	15.0	92	13.7	5	8	202	0.0	1007.6	0	0.000	0.0
20090903 04:40	15.0	15.0	15.0	92	13.7	5	8	225	0.0	1007.7	0	0.000	0.0
20090903 04:45	15.0	15.0	15.0	92	13.7	3	6	225	0.0	1007.7	0	0.000	0.0
20090903 04:50	15.0	15.0	15.0	92	13.7	2	8	225	0.0	1007.5	0	0.000	0.0
20090903 04:55	15.0	15.0	15.0	92	13.7	2	8	315	0.0	1007.3	0	0.000	0.0
20090903 05:00	15.0	15.0	15.0	92	13.7	0	5	0	0.0	1007.3	0	0.000	0.0
20090903 05:05	14.9	14.9	14.9	92	13.6	0	2	0	0.0	1007.4	0	0.000	0.0
20090903 05:10	14.9	14.9	14.9	92	13.6	0	3	0	0.0	1007.0	0	0.000	0.0
20090903 05:15	14.9	14.9	14.9	92	13.6	0	5	0	0.0	1007.3	0	0.000	0.0
20090903 05:20	15.0	15.0	15.0	92	13.7	3	6	270	0.0	1007.4	0	0.000	0.0
20090903 05:25	15.0	15.0	15.0	92	13.7	3	6	270	0.0	1007.2	0	0.000	0.0
20090903 05:30	15.0	15.0	15.0	92	13.7	2	6	180	0.0	1007.0	0	0.000	0.0
20090903 05:35	15.0	15.0	15.0	92	13.7	2	5	180	0.0	1007.3	0	0.000	0.0
20090903 05:40	15.0	15.0	15.0	92	13.7	2	6	180	0.0	1007.4	0	0.000	0.0
20090903 05:45	15.0	15.0	15.0	92	13.7	3	8	292	0.0	1007.7	0	0.000	0.0
20090903 05:50	15.0	15.0	15.0	92	13.7	3	8	270	0.0	1007.9	0	0.000	0.0
20090903 05:55	15.0	15.0	15.0	93	13.9	2	6	270	0.2	1008.0	0	0.000	0.0
20090903 06:00	15.0	15.0	15.0	93	13.9	2	6	270	0.2	1008.0	0	0.000	0.0
20090903 06:05	15.0	15.0	15.0	93	13.9	2	5	315	0.2	1008.1	0	0.000	0.0
20090903 06:10	15.0	15.0	15.0	93	13.9	2	5	315	0.2	1008.3	0	0.000	0.0
20090903 06:15	15.0	15.0	15.0	93	13.9	2	6	315	0.0	1008.4	0	0.000	0.0
20090903 06:20	15.0	15.0	15.0	93	13.9	0	2	315	0.0	1008.5	0	0.000	0.0
20090903 06:25	15.0	15.0	15.0	93	13.9	0	2	315	0.2	1008.6	0	0.000	0.0
20090903 06:30	15.1	15.1	15.1	93	13.9	2	6	315	0.0	1008.9	0	0.000	0.0
20090903 06:35	15.1	15.1	15.1	93	14.0	5	11	270	0.0	1008.7	0	0.000	0.0
20090903 06:40	15.2	15.2	15.2	93	14.0	6	16	315	0.0	1008.4	0	0.000	0.0
20090903 06:45	15.2	15.2	15.2	93	14.1	8	16	292	0.2	1008.3	0	0.000	0.0
20090903 06:50	15.2	15.2	15.2	93	14.1	8	16	292	0.0	1008.5	0	0.000	0.0
20090903 06:55	15.3	15.3	15.3	93	14.2	5	10	292	0.2	1008.3	0	0.000	0.0
20090903 07:00	15.3	15.3	15.3	93	14.2	3	8	315	0.2	1008.3	0	0.000	0.0
20090903 07:05	15.3	15.3	15.3	93	14.2	2	8	292	0.2	1008.2	0	0.000	0.0
20090903 07:10	15.2	15.2	15.2	93	14.1	0	5	292	0.2	1008.1	3	0.000	0.0
20090903 07:15	15.2	15.2	15.2	93	14.1	0	3	292	0.2	1008.2	5	0.000	0.0
20090903 07:20	15.2	15.2	15.2	93	14.1	2	5	292	0.0	1008.1	5	0.000	0.0
20090903 07:25	15.2	15.2	15.2	93	14.1	2	5	292	0.2	1008.0	7	0.000	0.0
20090903 07:30	15.3	15.3	15.3	93	14.2	2	5	292	0.0	1008.0	8	0.000	0.0
20090903 07:35	15.3	15.3	15.3	93	14.2	3	8	270	0.0	1008.0	9	0.000	0.0
20090903 07:40	15.3	15.3	15.3	93	14.2	5	13	202	0.2	1008.0	10	0.000	0.0
20090903 07:45	15.3	15.3	15.3	93	14.2	6	10	202	0.2	1008.0	13	0.000	0.0
20090903 07:50	15.4	15.4	15.4	93	14.3	6	13	180	0.0	1008.0	18	0.000	0.0
20090903 07:55	15.4	15.4	15.4	93	14.3	5	11	225	0.2	1007.9	21	0.000	0.0
20090903 08:00	15.5	15.5	15.5	93	14.4	5	11	180	0.2	1007.8	31	0.000	0.0
20090903 08:05	15.6	15.6	15.6	94	14.6	5	8	180	0.0	1008.1	44	0.000	0.0
20090903 08:10	15.6	15.6	15.6	94	14.6	3	11	180	0.0	1008.0	35	0.000	0.0
20090903 08:15	15.7	15.7	15.7	93	14.5	3	8	135	0.0	1007.6	21	0.000	0.0
20090903 08:20	15.7	15.7	15.7	93	14.5	2	6	180	0.0	1007.7	21	0.000	0.0
20090903 08:25	15.7	15.7	15.7	93	14.5	3	6	180	0.0	1007.4	28	0.000	0.0
20090903 08:30	15.7	15.7	15.7	93	14.6	3	8	158	0.0	1007.3	50	0.000	0.0
20090903 08:35	15.8	15.8	15.8	93	14.6	3	11	158	0.0	1007.5	47	0.000	0.0
20090903 08:40	15.8	15.8	15.8	93	14.6	6	10	180	0.0	1007.6	66	0.000	0.2
20090903 08:45	15.9	15.9	15.9	93	14.8	5	11	180	0.0	1007.4	66	0.000	0.5
20090903 08:50	15.9	15.9	15.9	94	14.9	5	10	158	0.0	1007.4	64	0.000	0.6
20090903 08:55	15.9	15.9	15.9	93	14.8	5	10	180	0.0	1007.5	96	0.000	0.8
20090903 09:00	16.1	16.1	16.1	94	15.1	5	10	180	0.0	1007.4	149	0.025	0.9
20090903 09:05	16.2	16.2	16.2	93	15.0	8	16	180	0.0	1007.7	160	0.000	0.9
20090903 09:10	16.3	16.3	16.3	93	15.1	8	16	180	0.0	1007.7	139	0.000	0.9
20090903 09:15	16.3	16.3	16.3	93	15.1	6	16	180	0.0	1007.6	137	0.000	0.9
20090903 09:20	16.3	16.3	16.3	93	15.2	8	18	180	0.0	1007.6	119	0.000	0.9
20090903 09:25	16.4	16.4	16.4	93	15.3	6	14	180	0.0	1007.5	123	0.000	0.7
20090903 09:30	16.4	16.4	16.4	93	15.3	10	23	180	0.0	1007.4	129	0.000	0.9
20090903 09:35	16.5	16.5	16.5	92	15.2	10	18	158	0.0	1007.3	145	0.000	1.2
20090903 09:40	16.5	16.5	16.5	92	15.2	10	19	180	0.0	1007.3	133	0.000	1.3
20090903 09:45	16.6	16.6	16.6	92	15.2	6	13	180	0.0	1007.4	135	0.000	1.5
20090903 09:50	16.7	16.7	16.7	92	15.4	6	18	158	0.0	1007.4	175	0.000	1.6
20090903 09:55	16.9	16.9	16.9	92	15.6	8	18	158	0.0	1007.4	217	0.000	1.6
20090903 10:00	17.1	17.1	17.1	91	15.6	8	19	158	0.0	1007.4	168	0.076	1.6
20090903 10:05	17.2	17.2	17.2	91	15.7	10	27	180	0.0	1007.3	130	0.000	1.6
20090903 10:10	17.3	17.3	17.3	90	15.6	8	16	180	0.0	1007.4	169	0.000	1.8
20090903 10:15	17.3	17.3	17.3	89	15.5	8	16	180	0.0	1007.4	145	0.000	1.3
20090903 10:20	17.4	17.4	17.4	89	15.6	8	23	180	0.0	1007.3	136	0.000	1.4
20090903 10:25	17.4	17.4	17.4	88	15.4	10	18	180	0.0	1007.4	143	0.000	1.3
20090903 10:30	17.4	17.4	17.4	89	15.6	6	11	180	0.0	1007.4	129	0.000	1.3
20090903 10:35	17.4	17.4	17.4	88	15.4	8	19	180	0.0	1007.3	159	0.000	1.5
20090903 10:40	17.5	17.5	17.5	89	15.7	6	16	180	0.0	1007.5	175	0.000	1.6
20090903 10:45	17.6	17.6	17.6	88	15.6	8	14	180	0.0	1007.4	183	0.000	2.1
20090903 10:50	17.8	17.8	17.8	88	15.8	10	19	180	0.0	1007.2	265	0.000	2.8
20090903 10:55	18.1	18.1	18.1	88	16.1	8	19	180	0.0	1007.0	345	0.000	2.8
20090903 11:00	18.4	18.4	18.4	86	16.1	11	23	180	0.0	1007.0	343	0.127	2.2
20090903 11:05	18.6	18.6	18.6	85	16.0	6	14	180	0.0	1006.9	168	0.000	2.2
20090903 11:10	18.8	18.8	18.8	85	16.2	8	16	158	0.0	1006.8	300	0.000	3.1
20090903 11:15	18.9	18.9	18.9	84	16.2	6	18	180	0.0	1006.7	261	0.000	3.5
20090903 11:20	19.3	19.3	19.3	84	16.6	6	18	202	0.0	1006.7	356	0.000	4.0
20090903 11:25	19.7	19.7	19.7	83	16.7	5	14	180	0.0	1006.6	236	0.000	3.8
20090903 11:30	20.1	20.1	20.1	82	16.9	6	18	180	0.0	1006.5	698	0.000	4.7
20090903 11:35	20.4	20.4	20.4	80	16.9	8	16	180	0.0	1006.5	699	0.000	4.4
20090903 11:40	20.8	20.8	20.8	77	16.6	8	16	158	0.0	1006.3	676	0.000	5.1
20090903 11:45	21.2	21.2	21.2	76	16.8	6	16	180	0.0	1006.3	697	0.000	4.9
20090903 11:50	21.6	21.6	21.6	74	16.8	8	14	180	0.0	1006.3	665	0.000	4.8
20090903 11:55	21.8	21.8	21.8	73	16.7	6	14	180	0.0	1006.3	272	0.000	3.1
20090903 12:00	21.8	21.8	21.8	74	16.9	8	14	248	0.0	1006.3	366	0.279	4.7
20090903 12:05	22.0	22.0	22.0	74	17.1	11	26	202	0.0	1006.3	788	0.000	5.4
20090903 12:10	22.3	22.3	22.3	72	17.0	11	23	225	0.0	1006.3	778	0.000	6.1
20090903 12:15	22.7	22.7	22.7	71	17.1	11	23	225	0.0	1006.2	739	0.000	5.9
20090903 12:20	22.9	22.9	22.9	69	16.9	11	26	248	0.0	1006.1	782	0.000	5.9
20090903 12:25	23.2	23.2	23.2	66	16.5	11	23	248	0.0	1006.1	828	0.000	5.3
20090903 12:30	23.0	23.0	23.0	66	16.3	13	27	248	0.0	1006.1	140	0.000	1.6
20090903 12:35	22.5	22.5	22.5	67	16.1	11	24	248	0.0	1006.3	83	0.000	0.8
20090903 12:40	22.2	22.2	22.2	68	16.0	10	21	270	0.0	1006.2	78	0.000	0.8
20090903 12:45	22.0	22.0	22.0	70	16.3	6	16	270	0.0	1006.2	83	0.000	0.8
20090903 12:50	21.8	21.8	21.8	70	16.1	8	11	248	0.0	1006.3	90	0.000	0.9
20090903 12:55	21.7	21.7	21.7	73	16.7	5	10	270	0.2	1006.3	100	0.000	1.0
20090903 13:00	21.4	21.4	21.4	76	17.0	5	8	270	0.0	1006.2	129	0.279	1.3
20090903 13:05	21.2	21.2	21.2	75	16.6	5	13	270	0.0	1006.0	148	0.000	1.7
20090903 13:10	21.0	21.0	21.0	76	16.6	6	10	248	0.0	1006.2	124	0.000	1.4
20090903 13:15	21.1	21.1	21.1	78	17.1	5	11	270	0.0	1006.2	206	0.000	2.5
20090903 13:20	21.2	21.2	21.2	78	17.2	3	10	248	0.0	1006.3	192	0.000	2.4
20090903 13:25	21.2	21.2	21.2	75	16.6	6	14	248	0.0	1006.3	76	0.000	0.9
20090903 13:30	21.2	21.2	21.2	75	16.6	6	14	248	0.0	1006.3	56	0.000	0.1
20090903 13:35	21.1	21.1	21.1	78	17.1	5	10	270	0.2	1006.4	116	0.000	1.3
20090903 13:40	20.9	20.9	20.9	78	16.9	8	19	270	0.0	1006.4	114	0.000	1.3
20090903 13:45	20.6	20.6	20.6	75	16.0	14	32	270	0.0	1006.5	120	0.000	1.4
20090903 13:50	20.3	20.3	20.3	76	16.0	14	31	270	0.0	1006.5	93	0.000	1.1
20090903 13:55	20.2	20.2	20.2	74	15.4	16	31	270	0.0	1006.5	52	0.000	0.4
20090903 14:00	20.1	20.1	20.1	74	15.3	19	31	270	0.0	1006.6	39	0.102	0.0
20090903 14:05	20.0	20.0	20.0	75	15.4	18	32	270	0.0	1006.7	52	0.000	0.1
20090903 14:10	20.0	20.0	20.0	75	15.4	18	35	270	0.0	1006.9	82	0.000	1.0
20090903 14:15	19.9	19.9	19.9	77	15.8	18	32	292	0.2	1007.1	101	0.000	1.2
20090903 14:20	19.7	19.7	19.7	78	15.8	16	29	270	0.0	1007.0	120	0.000	1.4
20090903 14:25	19.6	19.6	19.6	76	15.2	18	32	270	0.0	1006.8	103	0.000	1.2
20090903 14:30	19.4	19.4	19.4	78	15.5	13	24	270	0.0	1006.8	67	0.000	0.8
20090903 14:35	19.4	19.4	19.4	77	15.2	13	24	248	0.0	1006.8	51	0.000	0.2
20090903 14:40	19.4	19.4	19.4	78	15.4	13	26	270	0.0	1006.8	77	0.000	0.9
20090903 14:45	19.3	19.3	19.3	79	15.6	11	24	270	0.0	1006.8	126	0.000	1.4
20090903 14:50	19.3	19.3	19.3	79	15.6	16	27	248	0.0	1006.8	150	0.000	1.8
20090903 14:55	19.4	19.4	19.4	79	15.7	10	21	270	0.0	1006.7	153	0.000	1.8
20090903 15:00	19.5	19.5	19.5	79	15.8	13	23	248	0.0	1006.7	139	0.102	1.5
20090903 15:05	19.5	19.5	19.5	78	15.6	14	24	270	0.0	1006.7	95	0.000	1.0
20090903 15:10	19.4	19.4	19.4	77	15.2	13	26	270	0.0	1006.7	96	0.000	1.0
20090903 15:15	19.3	19.3	19.3	78	15.4	13	23	248	0.0	1006.6	103	0.000	1.0
20090903 15:20	19.3	19.3	19.3	79	15.6	14	23	248	0.0	1006.8	113	0.000	1.2
20090903 15:25	19.4	19.4	19.4	78	15.4	14	24	248	0.0	1006.9	177	0.000	1.8
20090903 15:30	19.6	19.6	19.6	79	15.8	14	27	270	0.0	1006.8	209	0.000	2.0
20090903 15:35	19.7	19.7	19.7	78	15.7	13	31	270	0.0	1006.7	158	0.000	1.4
20090903 15:40	19.7	19.7	19.7	77	15.6	11	27	270	0.0	1006.7	159	0.000	1.4
20090903 15:45	19.7	19.7	19.7	78	15.7	13	26	270	0.0	1006.7	290	0.000	2.3
20090903 15:50	19.8	19.8	19.8	79	16.0	11	21	270	0.0	1006.6	406	0.000	2.8
20090903 15:55	20.1	20.1	20.1	76	15.7	11	27	270	0.0	1006.6	287	0.000	2.6
20090903 16:00	20.2	20.2	20.2	76	15.8	14	23	248	0.0	1006.6	209	0.152	2.1
20090903 16:05	20.2	20.2	20.2	76	15.8	11	24	270	0.0	1006.6	166	0.000	1.5
20090903 16:10	20.1	20.1	20.1	76	15.7	13	24	248	0.0	1006.7	95	0.000	0.8
20090903 16:15	20.0	20.0	20.0	76	15.6	13	24	270	0.0	1006.8	108	0.000	0.9
20090903 16:20	19.9	19.9	19.9	76	15.6	14	34	270	0.0	1006.7	77	0.000	0.6
20090903 16:25	20.1	20.1	20.1	69	14.2	19	34	270	0.0	1006.8	97	0.000	0.7
20090903 16:30	20.2	20.2	20.2	68	14.1	18	34	292	0.0	1006.8	131	0.000	1.0
20090903 16:35	20.3	20.3	20.3	69	14.5	13	26	270	0.0	1006.8	76	0.000	0.7
20090903 16:40	20.3	20.3	20.3	70	14.7	11	21	270	0.0	1006.8	86	0.000	0.6
20090903 16:45	20.3	20.3	20.3	71	14.9	8	13	270	0.0	1006.7	111	0.000	0.7
20090903 16:50	20.3	20.3	20.3	70	14.7	10	16	270	0.0	1006.8	98	0.000	0.7
20090903 16:55	20.4	20.4	20.4	68	14.3	14	27	270	0.0	1006.8	115	0.000	0.7
20090903 17:00	20.6	20.6	20.6	68	14.4	16	23	292	0.0	1006.8	168	0.127	1.1
20090903 17:05	20.7	20.7	20.7	67	14.3	14	27	270	0.0	1006.8	166	0.000	0.9
20090903 17:10	20.9	20.9	20.9	67	14.5	14	26	292	0.0	1006.9	213	0.000	1.1
20090903 17:15	21.3	21.3	21.3	66	14.7	14	29	270	0.0	1006.8	379	0.000	1.3
20090903 17:20	21.7	21.7	21.7	60	13.6	21	42	270	0.0	1006.7	217	0.000	1.3
20090903 17:25	21.8	21.8	21.8	58	13.2	26	42	292	0.0	1006.7	317	0.000	1.2
20090903 17:30	21.7	21.7	21.7	58	13.0	21	32	270	0.0	1006.8	176	0.000	1.0
20090903 17:35	21.3	21.3	21.3	58	12.7	24	39	270	0.0	1006.7	153	0.000	0.9
20090903 17:40	21.1	21.1	21.1	59	12.8	21	39	270	0.0	1007.0	160	0.000	0.8
20090903 17:45	21.1	21.1	21.1	60	13.0	21	35	270	0.0	1007.0	216	0.000	0.9
20090903 17:50	21.3	21.3	21.3	61	13.5	14	27	270	0.0	1006.9	327	0.000	0.9
20090903 17:55	21.4	21.4	21.4	60	13.3	16	29	270	0.0	1006.8	198	0.000	0.8
20090903 18:00	21.3	21.3	21.3	61	13.5	14	31	270	0.0	1007.0	171	0.229	0.6
20090903 18:05	21.2	21.2	21.2	61	13.3	14	31	270	0.0	1006.8	156	0.000	0.5
20090903 18:10	21.0	21.0	21.0	62	13.4	13	21	270	0.0	1007.0	89	0.000	0.0
20090903 18:15	20.8	20.8	20.8	61	13.0	13	27	270	0.0	1006.9	58	0.000	0.0
20090903 18:20	20.6	20.6	20.6	59	12.3	23	42	270	0.0	1007.1	31	0.000	0.0
20090903 18:25	20.5	20.5	20.5	61	12.7	16	29	270	0.0	1007.1	21	0.000	0.0
20090903 18:30	20.3	20.3	20.3	61	12.6	16	26	270	0.0	1007.0	27	0.000	0.0
20090903 18:35	20.2	20.2	20.2	61	12.5	18	29	270	0.0	1007.0	20	0.000	0.0
20090903 18:40	20.1	20.1	20.1	61	12.3	19	29	270	0.0	1007.0	18	0.000	0.0
20090903 18:45	20.0	20.0	20.0	62	12.5	16	26	292	0.0	1007.1	18	0.000	0.0
20090903 18:50	19.9	19.9	19.9	62	12.4	13	27	270	0.0	1007.1	20	0.000	0.0
20090903 18:55	19.8	19.8	19.8	62	12.3	13	23	270	0.0	1007.2	21	0.000	0.0
20090903 19:00	19.7	19.7	19.7	63	12.5	14	23	270	0.0	1007.3	16	0.102	0.0
20090903 19:05	19.6	19.6	19.6	64	12.6	11	23	270	0.0	1007.4	19	0.000	0.0
20090903 19:10	19.5	19.5	19.5	65	12.7	10	19	270	0.0	1007.3	30	0.000	0.0
20090903 19:15	19.4	19.4	19.4	66	12.9	8	13	248	0.0	1007.4	25	0.000	0.0
20090903 19:20	19.3	19.3	19.3	67	13.0	6	10	270	0.0	1007.3	22	0.000	0.0
20090903 19:25	19.2	19.2	19.2	67	12.9	6	14	270	0.0	1007.5	15	0.000	0.0
20090903 19:30	19.1	19.1	19.1	67	12.8	10	18	248	0.0	1007.7	11	0.000	0.0
20090903 19:35	18.9	18.9	18.9	67	12.7	8	14	248	0.0	1007.8	8	0.000	0.0
20090903 19:40	18.9	18.9	18.9	68	12.8	8	18	248	0.0	1007.8	0	0.000	0.0
20090903 19:45	18.8	18.8	18.8	67	12.5	8	16	225	0.0	1007.9	0	0.000	0.0
20090903 19:50	18.7	18.7	18.7	68	12.6	10	19	248	0.0	1007.8	0	0.000	0.0
20090903 19:55	18.6	18.6	18.6	69	12.8	10	18	270	0.0	1008.0	0	0.000	0.0
20090903 20:00	18.4	18.4	18.4	69	12.6	8	16	248	0.0	1008.3	0	0.051	0.0
20090903 20:05	18.3	18.3	18.3	69	12.5	6	14	248	0.0	1008.3	0	0.000	0.0
20090903 20:10	18.3	18.3	18.3	69	12.5	10	18	248	0.0	1008.5	0	0.000	0.0
20090903 20:15	18.3	18.3	18.3	69	12.5	11	19	270	0.0	1008.5	0	0.000	0.0
20090903 20:20	18.2	18.2	18.2	70	12.7	8	18	248	0.0	1008.5	0	0.000	0.0
20090903 20:25	18.2	18.2	18.2	69	12.4	10	19	248	0.0	1008.6	0	0.000	0.0
20090903 20:30	18.2	18.2	18.2	70	12.6	10	18	248	0.0	1008.8	0	0.000	0.0
20090903 20:35	18.2	18.2	18.2	70	12.6	13	24	225	0.0	1008.9	0	0.000	0.0
20090903 20:40	18.1	18.1	18.1	71	12.8	11	19	248	0.0	1008.9	0	0.000	0.0
20090903 20:45	18.1	18.1	18.1	71	12.7	10	19	248	0.0	1009.0	0	0.000	0.0
20090903 20:50	17.9	17.9	17.9	74	13.2	8	18	248	0.2	1009.1	0	0.000	0.0
20090903 20:55	17.6	17.6	17.6	77	13.5	6	11	248	0.0	1009.3	0	0.000	0.0
20090903 21:00	17.2	17.2	17.2	80	13.7	8	18	225	0.0	1009.3	0	0.051	0.0
20090903 21:05	16.8	16.8	16.8	82	13.7	6	14	248	0.0	1009.3	0	0.000	0.0
20090903 21:10	16.7	16.7	16.7	82	13.6	8	14	225	0.2	1009.3	0	0.000	0.0
20090903 21:15	16.6	16.6	16.6	83	13.7	6	16	225	0.0	1009.3	0	0.000	0.0
20090903 21:20	16.4	16.4	16.4	84	13.7	8	14	248	0.0	1009.3	0	0.000	0.0
20090903 21:25	16.4	16.4	16.4	85	13.9	8	14	248	0.0	1009.3	0	0.000	0.0
20090903 21:30	16.4	16.4	16.4	85	13.9	8	14	248	0.0	1009.3	0	0.000	0.0
20090903 21:35	16.3	16.3	16.3	85	13.8	11	21	248	0.0	1009.5	0	0.000	0.0
20090903 21:40	16.3	16.3	16.3	85	13.8	6	14	248	0.0	1009.4	0	0.000	0.0
20090903 21:45	16.3	16.3	16.3	85	13.8	8	18	248	0.0	1009.4	0	0.000	0.0
20090903 21:50	16.3	16.3	16.3	85	13.7	8	19	225	0.0	1009.4	0	0.000	0.0
20090903 21:55	16.3	16.3	16.3	85	13.7	8	14	225	0.0	1009.3	0	0.000	0.0
20090903 22:00	16.2	16.2	16.2	85	13.7	10	16	225	0.0	1009.3	0	0.025	0.0
20090903 22:05	16.2	16.2	16.2	85	13.6	8	18	248	0.0	1009.2	0	0.000	0.0
20090903 22:10	16.2	16.2	16.2	86	13.8	6	14	248	0.0	1009.2	0	0.000	0.0
20090903 22:15	16.1	16.1	16.1	86	13.8	6	11	225	0.0	1009.2	0	0.000	0.0
20090903 22:20	16.1	16.1	16.1	86	13.7	6	13	270	0.0	1009.3	0	0.000	0.0
20090903 22:25	16.0	16.0	16.0	86	13.7	6	11	248	0.0	1009.3	0	0.000	0.0
20090903 22:30	15.9	15.9	15.9	86	13.6	6	10	225	0.0	1009.5	0	0.000	0.0
20090903 22:35	15.9	15.9	15.9	86	13.6	6	11	248	0.0	1009.6	0	0.000	0.0
20090903 22:40	15.9	15.9	15.9	87	13.8	5	10	248	0.0	1009.5	0	0.000	0.0
20090903 22:45	15.9	15.9	15.9	87	13.7	5	10	225	0.0	1009.4	0	0.000	0.0
20090903 22:50	15.8	15.8	15.8	87	13.6	5	10	225	0.0	1009.4	0	0.000	0.0
20090903 22:55	15.7	15.7	15.7	87	13.6	5	11	225	0.0	1009.5	0	0.000	0.0
20090903 23:00	15.7	15.7	15.7	88	13.7	5	8	225	0.0	1009.4	0	0.025	0.0
20090903 23:05	15.6	15.6	15.6	88	13.6	6	11	225	0.0	1009.2	0	0.000	0.0
20090903 23:10	15.6	15.6	15.6	88	13.6	6	10	225	0.0	1009.2	0	0.000	0.0
20090903 23:15	15.6	15.6	15.6	88	13.6	5	10	248	0.0	1009.2	0	0.000	0.0
20090903 23:20	15.5	15.5	15.5	88	13.5	8	14	248	0.0	1009.3	0	0.000	0.0
20090903 23:25	15.5	15.5	15.5	87	13.3	6	11	270	0.0	1009.2	0	0.000	0.0
20090903 23:30	15.6	15.6	15.6	86	13.3	6	11	248	0.0	1009.3	0	0.000	0.0
20090903 23:35	15.7	15.7	15.7	85	13.1	6	11	270	0.0	1009.2	0	0.000	0.0
20090903 23:40	15.7	15.7	15.7	85	13.2	6	11	270	0.0	1009.4	0	0.000	0.0
20090903 23:45	15.7	15.7	15.7	85	13.2	8	16	270	0.0	1009.5	0	0.000	0.0
20090903 23:50	15.7	15.7	15.7	85	13.1	8	14	270	0.0	1009.6	0	0.000	0.0
20090903 23:55	15.7	15.7	15.7	84	13.0	8	13	248	0.0	1009.6	0	0.000	0.0



Please note the license to use and transfer of this data:
http://creativecommons.org/licenses/by-nc-sa/3.0/deed.en

Bitte beachten sie die Lizenz zur Verwertung und Weitergabe der Daten:
http://creativecommons.org/licenses/by-nc-sa/3.0/deed.de

zurück zur Übersicht der Archivdaten (Monats und Tagesdaten)

Cookies helfen bei der Bereitstellung von Inhalten. Durch die Nutzung dieser Seiten erklärst du dich damit einverstanden, dass Cookies auf deinem Rechner gespeichert werden. Weitere Information